createdAt,value
2023-02-15T00:03:20.899Z,22.70
2023-02-15T00:08:25.175Z,22.60
2023-02-15T00:13:27.992Z,22.50
2023-02-15T00:18:31.083Z,22.50
2023-02-15T00:23:35.711Z,22.50
2023-02-15T00:28:39.034Z,22.40
2023-02-15T00:33:42.463Z,22.40
2023-02-15T00:38:46.646Z,22.40
2023-02-15T00:43:49.544Z,22.40
2023-02-15T00:48:52.443Z,22.30
2023-02-15T00:53:56.630Z,22.20
2023-02-15T00:58:59.524Z,22.20
2023-02-15T01:04:03.169Z,22.10
2023-02-15T01:09:07.478Z,22.10
2023-02-15T01:14:10.417Z,22.10
2023-02-15T01:19:13.938Z,22.10
2023-02-15T01:24:18.129Z,22.00
2023-02-15T01:29:21.064Z,22.00
2023-02-15T01:34:23.958Z,22.00
2023-02-15T01:39:28.245Z,21.90
2023-02-15T01:44:50.474Z,21.90
2023-02-15T01:50:00.505Z,21.80
2023-02-15T01:55:07.338Z,21.80
2023-02-15T02:00:11.829Z,21.80
2023-02-15T02:05:14.718Z,21.80
2023-02-15T02:10:21.347Z,21.80
2023-02-15T02:15:26.671Z,21.70
2023-02-15T02:20:43.247Z,21.70
2023-02-15T02:26:28.079Z,21.70
2023-02-15T02:31:49.899Z,21.70
2023-02-15T02:37:01.792Z,21.60
2023-02-15T02:42:11.444Z,21.60
2023-02-15T02:47:20.609Z,21.60
2023-02-15T02:52:40.757Z,21.60
2023-02-15T02:57:52.658Z,21.60
2023-02-15T03:03:05.827Z,21.50
2023-02-15T03:08:11.235Z,21.50
2023-02-15T03:13:14.173Z,21.50
2023-02-15T03:18:19.785Z,21.50
2023-02-15T03:23:26.795Z,21.50
2023-02-15T03:28:35.473Z,21.40
2023-02-15T03:33:42.545Z,21.40
2023-02-15T03:38:52.192Z,21.40
2023-02-15T03:43:58.599Z,21.50
2023-02-15T03:49:06.344Z,21.50
2023-02-15T03:54:12.842Z,21.50
2023-02-15T03:59:33.386Z,21.40
2023-02-15T04:04:38.714Z,21.40
2023-02-15T04:10:00.657Z,21.30
2023-02-15T04:15:35.274Z,21.30
2023-02-15T04:20:55.409Z,21.30
2023-02-15T04:25:59.975Z,21.20
2023-02-15T04:31:03.041Z,21.20
2023-02-15T04:36:07.207Z,21.30
2023-02-15T04:41:13.247Z,21.30
2023-02-15T04:46:16.105Z,21.30
2023-02-15T04:51:19.034Z,21.30
2023-02-15T04:56:23.337Z,21.20
2023-02-15T05:01:26.281Z,21.20
2023-02-15T05:06:29.216Z,21.10
2023-02-15T05:11:33.650Z,21.00
2023-02-15T05:16:36.511Z,21.10
2023-02-15T05:21:39.375Z,21.10
2023-02-15T05:27:01.147Z,21.10
2023-02-15T05:32:05.276Z,21.20
2023-02-15T05:37:08.477Z,21.30
2023-02-15T05:42:12.781Z,21.30
2023-02-15T05:47:15.630Z,21.40
2023-02-15T05:52:18.524Z,21.40
2023-02-15T05:57:22.682Z,21.40
2023-02-15T06:02:25.665Z,21.40
2023-02-15T06:07:28.576Z,21.40
2023-02-15T06:12:32.840Z,21.50
2023-02-15T06:17:36.253Z,21.60
2023-02-15T06:22:39.099Z,21.70
2023-02-15T06:27:44.890Z,21.80
2023-02-15T06:32:47.933Z,21.80
2023-02-15T06:37:51.111Z,21.80
2023-02-15T06:42:55.309Z,21.80
2023-02-15T06:47:58.231Z,21.80
2023-02-15T06:53:01.248Z,21.80
2023-02-15T06:58:05.467Z,21.80
2023-02-15T07:03:08.298Z,21.80
2023-02-15T07:08:11.187Z,21.80
2023-02-15T07:13:15.385Z,21.80
2023-02-15T07:18:18.291Z,21.90
2023-02-15T07:23:21.150Z,21.90
2023-02-15T07:28:25.404Z,21.90
2023-02-15T07:33:29.868Z,21.90
2023-02-15T07:38:34.351Z,21.90
2023-02-15T07:43:40.177Z,21.90
2023-02-15T07:48:44.006Z,21.80
2023-02-15T07:53:48.020Z,21.90
2023-02-15T07:58:56.776Z,21.90
2023-02-15T08:03:59.848Z,22.00
2023-02-15T08:09:04.753Z,22.10
2023-02-15T08:14:11.120Z,22.20
2023-02-15T08:19:15.942Z,22.20
2023-02-15T08:24:20.863Z,22.20
2023-02-15T08:29:26.707Z,22.10
2023-02-15T08:34:30.361Z,22.10
2023-02-15T08:39:33.295Z,22.20
2023-02-15T08:44:37.469Z,22.30
2023-02-15T08:49:40.336Z,22.40
2023-02-15T08:54:43.278Z,22.40
2023-02-15T08:59:48.301Z,22.50
2023-02-15T09:04:52.644Z,22.60
2023-02-15T09:09:55.517Z,22.70
2023-02-15T09:14:59.709Z,22.60
2023-02-15T09:20:02.640Z,22.70
2023-02-15T09:25:05.752Z,22.60
2023-02-15T09:30:11.088Z,22.60
2023-02-15T09:35:14.433Z,22.70
2023-02-15T09:40:19.006Z,22.70
2023-02-15T09:46:03.534Z,22.80
2023-02-15T09:51:29.203Z,22.90
2023-02-15T09:56:38.337Z,23.00
2023-02-15T10:01:52.304Z,23.10
2023-02-15T10:07:03.515Z,23.10
2023-02-15T10:12:21.611Z,23.20
2023-02-15T10:17:39.827Z,23.10
2023-02-15T10:22:57.240Z,23.10
2023-02-15T10:28:07.355Z,23.00
2023-02-15T10:33:19.889Z,23.10
2023-02-15T10:38:31.176Z,23.10
2023-02-15T10:43:46.003Z,23.20
2023-02-15T10:49:14.681Z,23.10
2023-02-15T10:54:26.794Z,23.30
2023-02-15T11:00:06.334Z,23.30
2023-02-15T11:05:26.117Z,23.40
2023-02-15T11:10:34.096Z,23.40
2023-02-15T11:15:41.256Z,23.40
2023-02-15T11:20:52.895Z,23.30
2023-02-15T11:25:59.584Z,23.30
2023-02-15T11:31:13.399Z,23.30
2023-02-15T11:36:22.315Z,23.40
2023-02-15T11:41:29.122Z,23.50
2023-02-15T11:46:32.331Z,23.60
2023-02-15T11:51:37.815Z,23.60
2023-02-15T11:56:40.706Z,23.60
2023-02-15T12:01:46.117Z,23.70
2023-02-15T12:06:55.082Z,23.70
2023-02-15T12:12:26.473Z,23.80
2023-02-15T12:17:32.794Z,23.70
2023-02-15T12:22:39.387Z,23.70
2023-02-15T12:27:44.924Z,23.60
2023-02-15T12:32:53.838Z,23.70
2023-02-15T12:37:58.393Z,23.70
2023-02-15T12:43:09.404Z,23.80
2023-02-15T12:48:17.784Z,23.80
2023-02-15T12:53:24.318Z,23.80
2023-02-15T12:58:31.233Z,23.80
2023-02-15T13:03:34.270Z,23.90
2023-02-15T13:08:47.171Z,23.80
2023-02-15T13:13:54.939Z,23.70
2023-02-15T13:18:59.396Z,23.60
2023-02-15T13:24:07.227Z,23.50
2023-02-15T13:29:20.152Z,23.40
2023-02-15T13:34:27.681Z,23.40
2023-02-15T13:39:40.431Z,23.30
2023-02-15T13:45:10.117Z,23.20
2023-02-15T13:50:35.947Z,23.20
2023-02-15T13:55:42.178Z,23.30
2023-02-15T14:00:53.284Z,23.40
2023-02-15T14:06:30.957Z,23.50
2023-02-15T14:11:43.898Z,23.50
2023-02-15T14:17:06.681Z,23.60
2023-02-15T14:22:17.824Z,23.60
2023-02-15T14:27:28.960Z,23.60
2023-02-15T14:32:38.550Z,23.50
2023-02-15T14:37:48.021Z,23.50
2023-02-15T14:42:55.720Z,23.40
2023-02-15T14:48:06.396Z,23.40
2023-02-15T14:53:26.876Z,23.40
2023-02-15T14:58:29.926Z,23.40
2023-02-15T15:03:34.502Z,23.40
2023-02-15T15:08:41.952Z,23.40
2023-02-15T15:13:56.311Z,23.40
2023-02-15T15:19:01.420Z,23.40
2023-02-15T15:24:04.757Z,23.30
2023-02-15T15:29:08.514Z,23.20
2023-02-15T15:34:47.494Z,23.10
2023-02-15T15:40:32.320Z,23.00
2023-02-15T15:45:59.842Z,22.90
2023-02-15T15:51:08.617Z,22.90
2023-02-15T15:56:17.263Z,23.00
2023-02-15T16:01:27.851Z,22.80
2023-02-15T16:06:35.062Z,22.60
2023-02-15T16:11:40.416Z,22.70
2023-02-15T16:16:48.282Z,22.80
2023-02-15T16:21:52.609Z,22.80
2023-02-15T16:27:16.876Z,22.80
2023-02-15T16:32:21.983Z,22.70
2023-02-15T16:37:29.031Z,22.70
2023-02-15T16:42:31.921Z,22.60
2023-02-15T16:47:40.949Z,22.60
2023-02-15T16:52:45.704Z,22.70
2023-02-15T16:57:48.623Z,22.70
2023-02-15T17:03:01.935Z,22.70
2023-02-15T17:08:18.048Z,22.70
2023-02-15T17:13:20.944Z,22.60
2023-02-15T17:18:25.230Z,22.50
2023-02-15T17:23:33.464Z,22.50
2023-02-15T17:28:36.965Z,22.50
2023-02-15T17:33:40.446Z,22.40
2023-02-15T17:39:03.963Z,22.30
2023-02-15T17:44:09.244Z,22.40
2023-02-15T17:49:23.219Z,22.70
2023-02-15T17:54:44.980Z,23.10
2023-02-15T18:00:05.186Z,23.50
2023-02-15T18:05:31.263Z,23.90
2023-02-15T18:10:52.802Z,24.40
2023-02-15T18:15:56.403Z,24.80
2023-02-15T18:20:59.221Z,25.20
2023-02-15T18:26:03.407Z,25.40
2023-02-15T18:31:06.846Z,25.50
2023-02-15T18:36:15.718Z,25.60
2023-02-15T18:41:21.805Z,25.70
2023-02-15T18:46:24.661Z,25.80
2023-02-15T18:51:27.608Z,25.90
2023-02-15T18:56:32.820Z,26.10
2023-02-15T19:01:36.044Z,26.30
2023-02-15T19:06:44.307Z,26.40
2023-02-15T19:11:52.712Z,26.40
2023-02-15T19:16:56.465Z,26.50
2023-02-15T19:21:59.951Z,26.60
2023-02-15T19:27:04.441Z,26.60
2023-02-15T19:32:07.587Z,26.60
2023-02-15T19:37:23.544Z,26.60
2023-02-15T19:42:28.588Z,26.50
2023-02-15T19:47:32.319Z,26.50
2023-02-15T19:52:35.428Z,26.60
2023-02-15T19:57:39.750Z,26.80
2023-02-15T20:02:42.624Z,26.90
2023-02-15T20:07:48.265Z,27.10
2023-02-15T20:12:52.451Z,27.20
2023-02-15T20:17:56.505Z,27.10
2023-02-15T20:22:59.374Z,27.00
2023-02-15T20:28:03.543Z,26.90
2023-02-15T20:33:06.546Z,26.80
2023-02-15T20:38:18.548Z,26.80
2023-02-15T20:43:23.492Z,26.80
2023-02-15T20:48:26.424Z,26.70
2023-02-15T20:53:30.153Z,26.70
2023-02-15T20:58:36.010Z,26.70
2023-02-15T21:03:39.063Z,26.80
2023-02-15T21:08:42.459Z,26.90
2023-02-15T21:13:46.761Z,26.90
2023-02-15T21:18:49.561Z,26.90
2023-02-15T21:23:53.893Z,26.90
2023-02-15T21:28:58.108Z,26.80
2023-02-15T21:34:01.620Z,26.80
2023-02-15T21:39:05.211Z,26.70
2023-02-15T21:44:34.680Z,26.60
2023-02-15T21:49:37.505Z,26.50
2023-02-15T21:54:41.310Z,26.40
2023-02-15T21:59:46.610Z,26.30
2023-02-15T22:04:49.462Z,26.30
2023-02-15T22:09:52.333Z,26.20
2023-02-15T22:14:56.656Z,26.00
2023-02-15T22:19:59.532Z,25.90
2023-02-15T22:25:02.412Z,25.80
2023-02-15T22:30:23.193Z,25.80
2023-02-15T22:35:28.599Z,25.70
2023-02-15T22:40:33.778Z,25.50
2023-02-15T22:45:38.305Z,25.40
2023-02-15T22:50:41.200Z,25.30
2023-02-15T22:55:44.737Z,25.20
2023-02-15T23:00:49.201Z,25.10
2023-02-15T23:05:53.038Z,24.90
2023-02-15T23:10:58.361Z,24.80
2023-02-15T23:16:05.092Z,24.70
2023-02-15T23:21:20.241Z,24.70
2023-02-15T23:26:25.413Z,24.60
2023-02-15T23:31:32.365Z,24.50
2023-02-15T23:36:37.335Z,24.50
2023-02-15T23:41:40.450Z,24.40
2023-02-15T23:46:47.436Z,24.30
2023-02-15T23:51:51.891Z,24.20
2023-02-15T23:56:59.181Z,24.20
